Terminal Aerodrome Forecast
Issued by NWS Albany, NY

Home | Current Version | Previous Version | Text Only | Print | Product List | Glossary On
Versions: 1 2 3 4 5 6 7 8 9 10 11 12 13 14 15 16 17 18
000
FTUS41 KALY 221700
TAFPOU
TAF
KPOU 221721Z 2218/2318 15005KT P6SM VCSH OVC035
      TEMPO 2218/2220 5SM -DZ BR OVC025
     FM222000 11005KT P6SM VCSH SCT025 OVC035
     FM230300 09004KT P6SM VCSH BKN025 OVC040
     FM230600 VRB03KT 4SM BR SCT008 OVC015
     FM231500 VRB03KT P6SM SCT020 BKN040=

USA.gov is the U.S. government's official web portal to all federal, state and local government web resources and services.